CAS2 weather

Moose Lake (Lodge) Airport
Moose Lake, British Columbia, Canada

Public forecast

Using degrees Celsius for public forecast. Weather courtesy of forecast.io.

METAR (pilot weather report)

Closest report is Bella Coola Airport, 59.6 nm (110.5 km) SW. Retrieved 2019/08/21 14:00 UTC (43 minutes ago):

CYBD 211400Z 24018G30KT 10SM -RA SCT040 BKN070 16/12 A2972 RMK SC3AC4 SLP067 DENSITY ALT 500FT

TAF (pilot weather forecast)

Closest forecast is Quesnel Airport, 104.7 nm (193.8 km) E. Retrieved 2019/08/21 12:42 UTC (2 hours ago):

TAF TAF CYQZ 211141Z 2112/2124 16008KT P6SM FEW130 SCT150 BKN180 BECMG 2116/2118 16012G22KT FM211900 17010G20KT P6SM SCT050 BKN070 TEMPO 2119/2124 P6SM -SHRA BKN050 PROB40 2119/2124 VRB15G25KT 4SM TSRA BKN050CB RMK FCST BASED ON AUTO OBS. NXT FCST BY 211900Z